createdAt,value
2023-10-10T05:29:00.676Z,98752.34
2023-10-10T05:30:03.514Z,98750.69
2023-10-10T05:31:11.299Z,98757.78
2023-10-10T05:32:13.421Z,98759.53
2023-10-10T05:33:15.813Z,98760.44
2023-10-10T05:34:18.068Z,98766.56
2023-10-10T05:35:19.871Z,98765.69
2023-10-10T05:36:21.819Z,98765.59
2023-10-10T05:37:23.627Z,98770.03
2023-10-10T05:38:26.664Z,98772.59
2023-10-10T05:39:33.745Z,98774.22
2023-10-10T05:40:36.157Z,98768.75
2023-10-10T05:41:41.811Z,98770.28
2023-10-10T05:42:43.804Z,98771.13
2023-10-10T05:43:50.943Z,98767.47
2023-10-10T05:44:55.055Z,98776.06
2023-10-10T05:46:11.932Z,98771.63
2023-10-10T05:48:35.612Z,98779.50
2023-10-10T05:49:38.658Z,98777.72
2023-10-10T05:50:47.041Z,98778.47
2023-10-10T05:51:50.101Z,98780.16
2023-10-10T05:52:53.352Z,98778.47
2023-10-10T05:53:57.702Z,98790.63
2023-10-10T05:55:00.180Z,98774.13
2023-10-10T05:56:14.624Z,98787.16
2023-10-10T05:57:30.380Z,98780.16
2023-10-10T05:58:37.147Z,98787.94
2023-10-10T06:01:15.199Z,98792.31
2023-10-10T06:02:18.427Z,98790.38
2023-10-10T06:03:20.699Z,98792.84
2023-10-10T06:04:23.064Z,98796.38
2023-10-10T06:05:25.386Z,98798.09
2023-10-10T06:06:29.057Z,98798.16
2023-10-10T06:07:31.529Z,98798.94
2023-10-10T06:08:33.368Z,98794.50
2023-10-10T06:09:41.449Z,98792.69
2023-10-10T06:10:43.594Z,98800.56
2023-10-10T06:11:48.814Z,98795.31
2023-10-10T06:12:50.799Z,98796.09
2023-10-10T06:13:52.886Z,98801.22
2023-10-10T06:14:55.935Z,98801.19
2023-10-10T06:16:07.288Z,98794.16
2023-10-10T06:17:10.492Z,98797.81
2023-10-10T06:18:15.467Z,98797.81
2023-10-10T06:19:22.584Z,98798.72
2023-10-10T06:20:28.050Z,98804.91
2023-10-10T06:21:31.143Z,98812.72
2023-10-10T06:22:33.666Z,98807.75
2023-10-10T06:23:36.807Z,98807.69
2023-10-10T06:24:40.507Z,98809.41
2023-10-10T06:25:43.415Z,98809.31
2023-10-10T06:26:47.584Z,98810.16
2023-10-10T06:27:55.635Z,98812.59
2023-10-10T06:28:58.522Z,98808.22
2023-10-10T06:30:00.354Z,98813.38
2023-10-10T06:31:02.324Z,98813.25
2023-10-10T06:32:04.871Z,98817.50
2023-10-10T06:33:16.842Z,98804.22
2023-10-10T06:34:23.502Z,98820.00
2023-10-10T06:35:26.590Z,98818.44
2023-10-10T06:36:34.321Z,98814.97
2023-10-10T06:37:36.972Z,98817.72
2023-10-10T06:38:42.737Z,98813.38
2023-10-10T06:39:55.791Z,98822.97
2023-10-10T06:40:58.426Z,98818.41
2023-10-10T06:42:00.502Z,98820.97
2023-10-10T06:43:09.124Z,98819.25
2023-10-10T06:44:37.539Z,98824.53
2023-10-10T06:45:42.084Z,98821.81
2023-10-10T06:46:48.791Z,98821.78
2023-10-10T06:47:55.975Z,98828.94
2023-10-10T06:49:05.692Z,98829.81
2023-10-10T06:50:14.424Z,98828.06
2023-10-10T06:51:25.554Z,98825.34
2023-10-10T06:52:29.441Z,98832.22
2023-10-10T06:53:37.068Z,98834.69
2023-10-10T06:54:46.023Z,98826.84
2023-10-10T06:55:48.516Z,98830.28
2023-10-10T06:57:02.739Z,98832.06
2023-10-10T06:58:06.750Z,98830.94
2023-10-10T06:59:17.774Z,98831.91
2023-10-10T07:00:20.005Z,98828.25
2023-10-10T07:01:22.731Z,98829.84
2023-10-10T07:02:26.879Z,98828.88
2023-10-10T07:03:32.102Z,98835.00
2023-10-10T07:04:37.103Z,98833.28
2023-10-10T07:05:41.144Z,98826.22
2023-10-10T07:06:49.744Z,98836.72
2023-10-10T07:07:58.013Z,98831.47
2023-10-10T07:09:15.907Z,98835.72
2023-10-10T07:10:27.054Z,98837.47
2023-10-10T07:11:29.382Z,98840.03
2023-10-10T07:12:31.248Z,98841.88
2023-10-10T07:13:37.451Z,98847.34
2023-10-10T07:14:45.389Z,98845.75
2023-10-10T07:15:55.160Z,98841.50
2023-10-10T07:16:58.561Z,98841.44
2023-10-10T07:18:10.474Z,98843.19
2023-10-10T07:19:27.874Z,98844.03
2023-10-10T07:20:48.742Z,98847.47
2023-10-10T07:21:52.884Z,98851.69
2023-10-10T07:22:55.454Z,98850.72
2023-10-10T07:24:14.595Z,98843.91
2023-10-10T07:25:45.267Z,98842.22
2023-10-10T07:27:00.364Z,98848.22
2023-10-10T07:28:02.607Z,98850.66
2023-10-10T07:29:24.473Z,98862.72
2023-10-10T07:30:35.796Z,98857.66
2023-10-10T07:31:41.760Z,98852.28
2023-10-10T07:32:53.139Z,98862.56
2023-10-10T07:34:05.038Z,98859.22
2023-10-10T07:35:07.388Z,98852.91
2023-10-10T07:36:14.323Z,98859.13
2023-10-10T07:37:20.113Z,98859.94
2023-10-10T07:38:31.784Z,98864.41
2023-10-10T07:39:34.194Z,98862.56
2023-10-10T07:40:39.818Z,98864.06
2023-10-10T07:41:46.913Z,98869.91
2023-10-10T07:42:59.457Z,98867.25
2023-10-10T07:44:02.040Z,98869.53
2023-10-10T07:45:05.097Z,98868.38
2023-10-10T07:46:20.391Z,98870.16
2023-10-10T07:47:27.547Z,98863.94
2023-10-10T07:48:30.287Z,98868.03
2023-10-10T07:49:32.111Z,98873.19
2023-10-10T07:50:48.252Z,98875.88
2023-10-10T07:51:51.296Z,98876.84
2023-10-10T07:52:53.702Z,98873.41
2023-10-10T07:54:14.808Z,98876.94
2023-10-10T07:55:16.934Z,98876.00
2023-10-10T07:56:18.939Z,98880.41
2023-10-10T07:57:27.563Z,98881.31
2023-10-10T07:58:52.748Z,98881.44
2023-10-10T07:59:59.802Z,98882.59
2023-10-10T08:01:11.196Z,98882.69
2023-10-10T08:02:26.699Z,98883.50
2023-10-10T08:03:32.584Z,98879.03
2023-10-10T08:04:35.602Z,98893.13
2023-10-10T08:05:37.605Z,98883.50
2023-10-10T08:06:40.172Z,98890.47
2023-10-10T08:07:42.154Z,98887.13
2023-10-10T08:08:45.339Z,98888.91
2023-10-10T08:09:49.466Z,98890.72
2023-10-10T08:10:51.395Z,98893.00
2023-10-10T08:11:56.609Z,98888.00
2023-10-10T08:12:59.564Z,98889.00
2023-10-10T08:14:01.410Z,98894.19
2023-10-10T08:15:20.311Z,98895.16
2023-10-10T08:16:24.229Z,98898.59
2023-10-10T08:17:27.471Z,98903.75
2023-10-10T08:18:50.991Z,98897.53
2023-10-10T08:19:53.082Z,98893.97
2023-10-10T08:20:55.061Z,98898.31
2023-10-10T08:21:56.950Z,98901.81
2023-10-10T08:23:01.092Z,98901.81
2023-10-10T08:24:04.624Z,98900.19
2023-10-10T08:25:06.961Z,98897.69
2023-10-10T08:26:08.872Z,98895.06
2023-10-10T08:27:12.403Z,98904.59
2023-10-10T08:28:14.288Z,98903.53
2023-10-10T08:29:16.580Z,98908.56
2023-10-10T08:30:19.166Z,98901.34
2023-10-10T08:31:21.959Z,98906.97
2023-10-10T08:32:27.336Z,98912.34
2023-10-10T08:33:33.977Z,98910.63
2023-10-10T08:34:40.308Z,98912.28
2023-10-10T08:35:43.993Z,98912.13
2023-10-10T08:36:46.022Z,98913.69
2023-10-10T08:37:47.868Z,98916.56
2023-10-10T08:38:50.415Z,98908.91
2023-10-10T08:39:52.453Z,98917.66
2023-10-10T08:41:02.571Z,98921.13
2023-10-10T08:42:16.407Z,98917.50
2023-10-10T08:43:19.404Z,98927.69
2023-10-10T08:44:22.232Z,98922.97
2023-10-10T08:45:26.867Z,98927.94
2023-10-10T08:46:41.928Z,98932.13
2023-10-10T08:47:44.560Z,98922.94
2023-10-10T08:48:46.767Z,98927.97
2023-10-10T08:49:49.190Z,98923.34
2023-10-10T08:50:51.209Z,98922.28
2023-10-10T08:51:54.633Z,98923.81
2023-10-10T08:52:56.563Z,98927.00
2023-10-10T08:53:58.701Z,98919.72
2023-10-10T08:55:02.871Z,98928.41
2023-10-10T08:56:08.299Z,98927.53
2023-10-10T08:57:13.705Z,98924.31
2023-10-10T08:58:15.683Z,98926.25
2023-10-10T08:59:19.360Z,98930.91
2023-10-10T09:00:21.382Z,98933.91
2023-10-10T09:01:23.519Z,98928.88
2023-10-10T09:02:34.895Z,98931.53
2023-10-10T09:03:37.276Z,98929.81
2023-10-10T09:04:39.694Z,98931.66
2023-10-10T09:05:41.856Z,98932.56
2023-10-10T09:06:58.804Z,98935.97
2023-10-10T09:08:08.408Z,98930.91
2023-10-10T09:09:29.545Z,98929.25
2023-10-10T09:10:31.613Z,98931.66
2023-10-10T09:11:35.307Z,98930.84
2023-10-10T09:12:56.283Z,98937.75
2023-10-10T09:13:58.271Z,98929.59
2023-10-10T09:15:18.088Z,98934.47
2023-10-10T09:16:45.817Z,98938.69
2023-10-10T09:17:48.749Z,98937.81
2023-10-10T09:19:12.926Z,98928.97
2023-10-10T09:20:24.984Z,98942.19
2023-10-10T09:21:27.102Z,98936.06
2023-10-10T09:22:44.328Z,98942.16
2023-10-10T09:24:06.303Z,98941.34
2023-10-10T09:25:28.430Z,98943.81
2023-10-10T09:26:30.323Z,98949.34
2023-10-10T09:27:37.336Z,98947.94
2023-10-10T09:28:47.232Z,98950.81
2023-10-10T09:29:55.776Z,98946.34
2023-10-10T09:31:01.614Z,98944.94
2023-10-10T09:32:06.749Z,98947.81
2023-10-10T09:33:18.093Z,98946.22
2023-10-10T09:34:24.632Z,98947.94
2023-10-10T09:35:29.756Z,98952.16
2023-10-10T09:36:39.468Z,98944.13
2023-10-10T09:37:43.830Z,98942.53
2023-10-10T09:38:47.599Z,98947.84
2023-10-10T09:39:56.557Z,98944.25
2023-10-10T09:41:23.590Z,98947.56
2023-10-10T09:42:44.479Z,98947.31
2023-10-10T09:44:19.434Z,98956.94
2023-10-10T09:45:43.140Z,98944.56
2023-10-10T09:47:03.383Z,98946.34
2023-10-10T09:48:29.372Z,98947.09
2023-10-10T09:49:44.403Z,98960.38
2023-10-10T09:51:07.753Z,98949.72
2023-10-10T09:52:30.555Z,98948.69
2023-10-10T09:53:34.274Z,98949.44
2023-10-10T09:54:37.977Z,98948.63
2023-10-10T09:55:40.716Z,98951.13
2023-10-10T09:56:49.590Z,98949.34
2023-10-10T09:58:02.170Z,98955.69
2023-10-10T09:59:08.816Z,98953.94
2023-10-10T10:00:26.693Z,98949.56
2023-10-10T10:01:29.587Z,98953.81
2023-10-10T10:02:42.147Z,98952.19
2023-10-10T10:03:56.842Z,98957.22
2023-10-10T10:04:59.056Z,98955.56
2023-10-10T10:06:24.717Z,98960.38
2023-10-10T10:07:57.841Z,98957.63
2023-10-10T10:09:21.541Z,98969.75
2023-10-10T10:10:55.667Z,98963.47
2023-10-10T10:12:20.703Z,98961.50
2023-10-10T10:14:17.183Z,98958.06
2023-10-10T10:15:40.834Z,98956.16
2023-10-10T10:16:48.547Z,98959.66
2023-10-10T10:17:50.337Z,98960.94
2023-10-10T10:19:12.692Z,98969.88
2023-10-10T10:20:35.159Z,98969.81
2023-10-10T10:21:53.032Z,98964.59
2023-10-10T10:22:55.091Z,98969.88
2023-10-10T10:24:16.645Z,98974.25
2023-10-10T10:25:29.965Z,98979.66
2023-10-10T10:26:44.793Z,98977.13
2023-10-10T10:27:50.682Z,98980.53
2023-10-10T10:28:58.716Z,98981.41
2023-10-10T10:30:40.036Z,98977.97
2023-10-10T10:31:52.380Z,98979.50
2023-10-10T10:32:55.786Z,98987.19
2023-10-10T10:34:24.550Z,98984.34
2023-10-10T10:35:47.720Z,98997.47
2023-10-10T10:36:57.478Z,98995.53
2023-10-10T10:38:01.606Z,98998.09
2023-10-10T10:39:22.828Z,99001.47
2023-10-10T10:40:40.714Z,99004.94
2023-10-10T10:41:44.029Z,98997.13
2023-10-10T10:42:53.525Z,99002.50
2023-10-10T10:44:09.877Z,99002.44
2023-10-10T10:45:39.336Z,99000.56
2023-10-10T10:46:42.261Z,99005.94
2023-10-10T10:47:51.355Z,99004.22
2023-10-10T10:49:03.574Z,99006.97
2023-10-10T10:50:29.954Z,99011.09
2023-10-10T10:51:53.115Z,99011.22
2023-10-10T10:53:00.026Z,99006.00
2023-10-10T10:54:01.938Z,99009.59
2023-10-10T10:55:24.388Z,99013.09
2023-10-10T10:56:32.743Z,99002.50
2023-10-10T10:57:50.135Z,99007.53
2023-10-10T10:58:55.528Z,99011.75
2023-10-10T10:59:57.802Z,99012.69
2023-10-10T11:01:17.994Z,99010.06
2023-10-10T11:02:30.284Z,99010.75
2023-10-10T11:03:45.172Z,99009.88
2023-10-10T11:04:51.718Z,99015.16
2023-10-10T11:05:58.688Z,99017.84
2023-10-10T11:07:08.900Z,99013.63
2023-10-10T11:08:15.866Z,99014.75
2023-10-10T11:09:31.711Z,99019.41
2023-10-10T11:10:38.405Z,99021.47
2023-10-10T11:11:41.937Z,99019.81
2023-10-10T11:12:45.922Z,99019.03
2023-10-10T11:13:49.964Z,99024.41
2023-10-10T11:14:54.723Z,99021.81
2023-10-10T11:16:12.051Z,99026.53
2023-10-10T11:17:24.152Z,99024.88
2023-10-10T11:18:36.441Z,99031.84
2023-10-10T11:19:41.549Z,99025.72
2023-10-10T11:21:13.002Z,99028.41
2023-10-10T11:22:33.797Z,99028.47
2023-10-10T11:23:43.363Z,99027.66
2023-10-10T11:24:49.022Z,99034.63
2023-10-10T11:26:01.740Z,99030.28
2023-10-10T11:27:08.554Z,99032.00
2023-10-10T11:28:23.419Z,99041.56
2023-10-10T11:29:29.842Z,99031.97
2023-10-10T11:30:32.980Z,99033.66
2023-10-10T11:31:36.311Z,99035.41
2023-10-10T11:32:48.860Z,99040.69
2023-10-10T11:33:57.547Z,99031.88
2023-10-10T11:35:17.735Z,99037.94
2023-10-10T11:36:31.074Z,99036.16
2023-10-10T11:37:34.751Z,99043.19
2023-10-10T11:38:37.772Z,99042.50
2023-10-10T11:39:48.175Z,99043.34
2023-10-10T11:40:54.359Z,99039.88
2023-10-10T11:41:56.167Z,99046.06
2023-10-10T11:43:00.394Z,99048.81
2023-10-10T11:44:04.511Z,99042.50
2023-10-10T11:45:07.848Z,99049.81
2023-10-10T11:46:11.040Z,99044.53
2023-10-10T11:47:26.317Z,99049.78
2023-10-10T11:48:30.678Z,99048.00
2023-10-10T11:49:33.646Z,99047.03
2023-10-10T11:50:52.882Z,99049.44
2023-10-10T11:51:54.729Z,99045.94
2023-10-10T11:52:58.515Z,99054.19
2023-10-10T11:54:00.323Z,99048.09
2023-10-10T11:55:02.339Z,99048.22
2023-10-10T11:56:06.196Z,99049.16
2023-10-10T11:57:08.097Z,99051.78
2023-10-10T11:58:10.166Z,99048.34
2023-10-10T11:59:12.122Z,99048.44
2023-10-10T12:00:27.202Z,99050.25
2023-10-10T12:01:51.421Z,99048.44
2023-10-10T12:02:56.970Z,99051.97
2023-10-10T12:04:09.323Z,99047.63
2023-10-10T12:05:31.377Z,99052.84
2023-10-10T12:06:33.323Z,99051.00
2023-10-10T12:07:41.645Z,99049.25
2023-10-10T12:08:48.262Z,99057.91
2023-10-10T12:09:53.241Z,99054.28
2023-10-10T12:11:07.859Z,99056.22
2023-10-10T12:12:11.238Z,99056.22
2023-10-10T12:13:20.939Z,99059.72
2023-10-10T12:14:25.475Z,99063.19
2023-10-10T12:15:27.391Z,99062.31
2023-10-10T12:16:29.535Z,99064.88
2023-10-10T12:17:32.541Z,99067.47
2023-10-10T12:18:54.543Z,99060.34
2023-10-10T12:19:58.078Z,99061.19
2023-10-10T12:21:02.753Z,99067.34
2023-10-10T12:22:12.490Z,99074.44
2023-10-10T12:23:15.388Z,99072.72
2023-10-10T12:24:17.582Z,99065.63
2023-10-10T12:25:19.573Z,99073.50
2023-10-10T12:26:23.553Z,99077.88
2023-10-10T12:27:31.515Z,99078.84
2023-10-10T12:28:33.607Z,99077.19
2023-10-10T12:29:41.322Z,99082.44
2023-10-10T12:30:43.675Z,99081.75
2023-10-10T12:31:46.040Z,99086.19
2023-10-10T12:32:50.574Z,99083.56
2023-10-10T12:33:55.328Z,99094.09
2023-10-10T12:35:01.090Z,99094.09
2023-10-10T12:36:10.682Z,99094.09
2023-10-10T12:37:16.728Z,99099.31
2023-10-10T12:38:22.525Z,99090.69
2023-10-10T12:39:28.810Z,99095.88
2023-10-10T12:40:34.618Z,99102.00
2023-10-10T12:41:45.346Z,99100.28
2023-10-10T12:42:47.264Z,99092.38
2023-10-10T12:43:50.553Z,99101.09
2023-10-10T12:44:52.489Z,99096.84
2023-10-10T12:45:57.298Z,99097.06
2023-10-10T12:47:00.665Z,99096.25
2023-10-10T12:48:04.358Z,99105.94
2023-10-10T12:49:06.388Z,99097.22
2023-10-10T12:50:14.487Z,99100.94
2023-10-10T12:51:16.410Z,99097.47
2023-10-10T12:52:19.419Z,99096.69
2023-10-10T12:53:22.245Z,99104.53
2023-10-10T12:54:29.702Z,99108.94
2023-10-10T12:55:31.954Z,99102.84
2023-10-10T12:56:39.992Z,99107.31
2023-10-10T12:57:41.980Z,99100.44
2023-10-10T12:58:53.071Z,99111.03
2023-10-10T13:00:15.198Z,99111.91
2023-10-10T13:01:24.699Z,99107.53
2023-10-10T13:02:28.249Z,99112.78
2023-10-10T13:03:33.746Z,99113.56
2023-10-10T13:04:37.770Z,99111.06
2023-10-10T13:05:39.868Z,99121.47
2023-10-10T13:06:41.661Z,99121.59
2023-10-10T13:07:44.955Z,99120.94
2023-10-10T13:08:56.213Z,99118.44
2023-10-10T13:09:59.363Z,99118.44
2023-10-10T13:11:04.021Z,99127.31
2023-10-10T13:12:06.042Z,99127.34
2023-10-10T13:13:10.738Z,99120.41
2023-10-10T13:14:20.695Z,99126.59
2023-10-10T13:15:48.075Z,99116.94
2023-10-10T13:16:50.196Z,99119.47
2023-10-10T13:17:54.461Z,99129.16
2023-10-10T13:18:57.456Z,99131.00
2023-10-10T13:20:00.305Z,99126.63
2023-10-10T13:21:04.425Z,99132.81
2023-10-10T13:22:08.354Z,99132.81
2023-10-10T13:23:10.894Z,99128.50
2023-10-10T13:24:13.771Z,99134.69
2023-10-10T13:25:16.226Z,99134.72
2023-10-10T13:26:18.844Z,99134.63
2023-10-10T13:27:22.862Z,99138.09
2023-10-10T13:28:24.606Z,99139.88
2023-10-10T13:29:26.611Z,99138.28
2023-10-10T13:30:28.438Z,99135.75
2023-10-10T13:31:30.835Z,99138.41
2023-10-10T13:32:33.208Z,99142.88
2023-10-10T13:33:35.168Z,99136.78
2023-10-10T13:34:38.975Z,99136.78
2023-10-10T13:35:40.935Z,99138.50
2023-10-10T13:36:42.856Z,99141.09
2023-10-10T13:37:45.124Z,99139.41
2023-10-10T13:38:49.975Z,99141.13
2023-10-10T13:39:56.000Z,99140.16
2023-10-10T13:41:02.841Z,99140.19
2023-10-10T13:42:07.829Z,99144.66
2023-10-10T13:43:09.980Z,99147.28
2023-10-10T13:44:12.414Z,99140.38
2023-10-10T13:45:19.577Z,99149.09
2023-10-10T13:46:25.752Z,99144.75
2023-10-10T13:47:28.668Z,99145.59
2023-10-10T13:48:31.828Z,99150.81
2023-10-10T13:49:33.762Z,99152.44
2023-10-10T13:50:52.255Z,99152.44
2023-10-10T13:51:54.701Z,99153.34
2023-10-10T13:52:56.624Z,99155.97
2023-10-10T13:53:58.592Z,99157.81
2023-10-10T13:55:00.621Z,99158.66
2023-10-10T13:56:05.321Z,99158.69
2023-10-10T13:57:08.645Z,99166.59
2023-10-10T13:58:13.956Z,99159.63
2023-10-10T13:59:18.578Z,99166.59
2023-10-10T14:00:31.048Z,99159.63
2023-10-10T14:01:43.116Z,99167.50
2023-10-10T14:02:46.761Z,99171.00
2023-10-10T14:03:50.251Z,99173.63
2023-10-10T14:04:52.520Z,99170.03
2023-10-10T14:06:11.675Z,99172.66
2023-10-10T14:07:15.809Z,99169.22
2023-10-10T14:08:19.479Z,99168.22
2023-10-10T14:09:26.724Z,99169.22
2023-10-10T14:10:29.121Z,99170.06
2023-10-10T14:11:33.934Z,99176.22
2023-10-10T14:12:36.218Z,99176.22
2023-10-10T14:13:38.377Z,99179.69
2023-10-10T14:14:46.197Z,99178.75
2023-10-10T14:15:56.435Z,99179.63
2023-10-10T14:16:59.488Z,99177.94
2023-10-10T14:18:01.574Z,99182.28
2023-10-10T14:19:03.669Z,99179.59
2023-10-10T14:20:20.918Z,99186.56
2023-10-10T14:21:27.202Z,99183.13
2023-10-10T14:22:38.058Z,99189.28
2023-10-10T14:23:47.664Z,99187.50
2023-10-10T14:24:52.090Z,99191.91
2023-10-10T14:26:14.162Z,99189.28
2023-10-10T14:27:18.827Z,99188.34
2023-10-10T14:28:20.732Z,99190.13
2023-10-10T14:29:23.749Z,99198.03
2023-10-10T14:30:25.943Z,99199.91
2023-10-10T14:31:32.530Z,99191.22
2023-10-10T14:32:39.241Z,99199.97
2023-10-10T14:33:41.911Z,99189.47
2023-10-10T14:34:45.374Z,99196.44
2023-10-10T14:35:47.704Z,99198.97
2023-10-10T14:36:53.294Z,99201.69
2023-10-10T14:38:02.085Z,99206.03
2023-10-10T14:39:04.662Z,99200.06
2023-10-10T14:40:10.882Z,99199.25
2023-10-10T14:41:21.293Z,99203.59
2023-10-10T14:42:23.421Z,99195.81
2023-10-10T14:43:29.090Z,99207.28
2023-10-10T14:44:32.821Z,99203.78
2023-10-10T14:45:35.480Z,99206.41
2023-10-10T14:46:37.328Z,99206.41
2023-10-10T14:47:44.184Z,99211.75
2023-10-10T14:48:48.014Z,99206.56
2023-10-10T14:49:55.307Z,99212.69
2023-10-10T14:50:58.593Z,99217.94
2023-10-10T14:52:05.187Z,99223.19
2023-10-10T14:53:10.311Z,99213.56
2023-10-10T14:54:18.642Z,99218.78
2023-10-10T14:55:28.724Z,99217.13
2023-10-10T14:56:35.782Z,99219.84
2023-10-10T14:57:37.683Z,99216.38
2023-10-10T14:58:39.547Z,99219.94
2023-10-10T14:59:44.262Z,99223.41
2023-10-10T15:00:46.503Z,99214.66
2023-10-10T15:01:52.053Z,99224.41
2023-10-10T15:02:57.579Z,99224.41
2023-10-10T15:04:01.063Z,99220.94
2023-10-10T15:05:10.828Z,99223.66
2023-10-10T15:06:17.142Z,99225.47
2023-10-10T15:07:19.154Z,99231.72
2023-10-10T15:08:22.613Z,99229.09
2023-10-10T15:09:26.573Z,99232.50
2023-10-10T15:10:28.718Z,99231.81
2023-10-10T15:11:31.119Z,99229.19
2023-10-10T15:12:34.480Z,99238.81
2023-10-10T15:13:42.287Z,99247.56
2023-10-10T15:14:44.251Z,99237.09
2023-10-10T15:15:47.474Z,99240.63
2023-10-10T15:16:50.612Z,99241.50
2023-10-10T15:17:53.060Z,99244.13
2023-10-10T15:18:55.202Z,99239.69
2023-10-10T15:19:57.311Z,99244.97
2023-10-10T15:20:59.478Z,99241.41
2023-10-10T15:22:01.430Z,99246.69
2023-10-10T15:23:03.748Z,99246.75
2023-10-10T15:24:13.030Z,99252.00
2023-10-10T15:25:16.652Z,99251.16
2023-10-10T15:26:19.417Z,99244.16
2023-10-10T15:27:21.600Z,99259.06
2023-10-10T15:28:29.482Z,99257.34
2023-10-10T15:29:34.396Z,99252.09
2023-10-10T15:30:37.567Z,99256.50
2023-10-10T15:31:41.496Z,99257.44
2023-10-10T15:32:48.599Z,99261.78
2023-10-10T15:33:50.917Z,99258.25
2023-10-10T15:34:52.782Z,99261.78
2023-10-10T15:35:54.686Z,99260.06
2023-10-10T15:36:58.432Z,99260.09
2023-10-10T15:38:00.445Z,99266.19
2023-10-10T15:39:05.469Z,99265.41
2023-10-10T15:40:08.266Z,99274.16
2023-10-10T15:41:21.248Z,99274.09
2023-10-10T15:42:23.147Z,99276.72
2023-10-10T15:43:32.700Z,99274.16
2023-10-10T15:44:35.597Z,99276.72
2023-10-10T15:45:39.414Z,99278.53
2023-10-10T15:46:45.079Z,99275.09
2023-10-10T15:47:54.341Z,99275.91
2023-10-10T15:48:57.216Z,99282.06
2023-10-10T15:50:01.976Z,99280.25
2023-10-10T15:51:04.208Z,99280.25
2023-10-10T15:52:07.979Z,99281.13
2023-10-10T15:53:09.804Z,99284.59
2023-10-10T15:54:12.427Z,99289.84
2023-10-10T15:55:16.359Z,99283.81
2023-10-10T15:56:18.676Z,99278.53
2023-10-10T15:57:27.555Z,99287.38
2023-10-10T15:58:29.545Z,99288.22
2023-10-10T15:59:31.648Z,99290.03
2023-10-10T16:00:34.706Z,99289.16
2023-10-10T16:01:37.109Z,99286.53
2023-10-10T16:02:41.364Z,99287.38
2023-10-10T16:03:48.956Z,99290.00
2023-10-10T16:04:51.636Z,99296.28
2023-10-10T16:05:53.605Z,99284.06
2023-10-10T16:06:55.528Z,99288.38
2023-10-10T16:08:08.804Z,99293.72
2023-10-10T16:09:13.315Z,99294.56
2023-10-10T16:10:16.489Z,99292.72
2023-10-10T16:11:21.533Z,99297.09
2023-10-10T16:12:23.670Z,99298.91
2023-10-10T16:13:25.791Z,99295.41
2023-10-10T16:14:27.780Z,99298.91
2023-10-10T16:15:31.401Z,99291.94
2023-10-10T16:16:33.327Z,99298.97
2023-10-10T16:17:36.680Z,99299.91
2023-10-10T16:18:39.188Z,99300.75
2023-10-10T16:19:43.726Z,99300.75
2023-10-10T16:20:47.141Z,99303.31
2023-10-10T16:21:50.399Z,99300.75
2023-10-10T16:22:53.870Z,99305.06
2023-10-10T16:23:56.194Z,99307.72
2023-10-10T16:24:57.989Z,99310.31
2023-10-10T16:26:00.400Z,99305.06
2023-10-10T16:27:03.156Z,99309.41
2023-10-10T16:28:08.593Z,99305.94
2023-10-10T16:29:12.583Z,99308.50
2023-10-10T16:30:18.250Z,99311.97
2023-10-10T16:31:21.603Z,99305.84
2023-10-10T16:32:23.748Z,99308.50
2023-10-10T16:33:25.936Z,99310.25
2023-10-10T16:34:30.800Z,99310.25
2023-10-10T16:35:34.116Z,99308.50
2023-10-10T16:36:36.156Z,99305.00
2023-10-10T16:37:39.337Z,99318.16
2023-10-10T16:38:41.773Z,99312.03
2023-10-10T16:39:47.621Z,99308.56
2023-10-10T16:40:51.658Z,99312.09
2023-10-10T16:41:53.650Z,99317.28
2023-10-10T16:42:58.186Z,99316.38
2023-10-10T16:44:01.710Z,99322.56
2023-10-10T16:45:05.040Z,99309.41
2023-10-10T16:46:11.122Z,99314.66
2023-10-10T16:47:17.710Z,99308.50
2023-10-10T16:48:20.554Z,99313.75
2023-10-10T16:49:24.213Z,99315.50
2023-10-10T16:50:26.290Z,99315.50
2023-10-10T16:51:28.475Z,99312.03
2023-10-10T16:52:30.349Z,99321.69
2023-10-10T16:53:32.309Z,99316.44
2023-10-10T16:54:37.011Z,99314.72
2023-10-10T16:55:42.746Z,99322.56
2023-10-10T16:56:44.814Z,99319.91
2023-10-10T16:57:48.360Z,99323.47
2023-10-10T16:58:53.546Z,99321.69
2023-10-10T16:59:57.695Z,99317.28
2023-10-10T17:01:05.143Z,99319.91
2023-10-10T17:02:07.080Z,99327.72
2023-10-10T17:03:13.562Z,99326.81
2023-10-10T17:04:17.559Z,99326.81
2023-10-10T17:05:25.046Z,99320.69
2023-10-10T17:06:33.629Z,99317.28
2023-10-10T17:07:47.791Z,99326.88
2023-10-10T17:08:50.782Z,99328.66
2023-10-10T17:09:52.816Z,99329.53
2023-10-10T17:11:10.303Z,99327.81
2023-10-10T17:12:17.976Z,99325.19
2023-10-10T17:13:21.238Z,99326.00
2023-10-10T17:14:23.475Z,99331.25
2023-10-10T17:15:25.412Z,99325.19
2023-10-10T17:16:30.256Z,99328.66
2023-10-10T17:17:32.726Z,99328.75
2023-10-10T17:18:34.738Z,99334.00
2023-10-10T17:19:37.099Z,99329.59
2023-10-10T17:20:41.856Z,99334.00
2023-10-10T17:21:47.803Z,99327.03
2023-10-10T17:22:49.979Z,99340.09
2023-10-10T17:23:54.070Z,99332.22
2023-10-10T17:24:55.934Z,99331.44
2023-10-10T17:25:57.890Z,99336.69
2023-10-10T17:27:02.021Z,99336.69
2023-10-10T17:28:04.037Z,99333.06
2023-10-10T17:29:06.125Z,99334.84
2023-10-10T17:30:15.614Z,99338.38
2023-10-10T17:31:27.927Z,99331.44
2023-10-10T17:32:29.986Z,99332.22
2023-10-10T17:33:35.208Z,99339.25
2023-10-10T17:34:37.234Z,99336.59
2023-10-10T17:35:41.954Z,99341.84
2023-10-10T17:36:45.416Z,99340.94
2023-10-10T17:37:47.392Z,99351.44
2023-10-10T17:38:50.188Z,99341.84
2023-10-10T17:39:52.118Z,99348.00
2023-10-10T17:41:01.367Z,99342.78
2023-10-10T17:42:03.872Z,99341.88
2023-10-10T17:43:06.199Z,99345.34
2023-10-10T17:44:11.231Z,99345.44
2023-10-10T17:45:13.670Z,99346.41
2023-10-10T17:46:16.523Z,99349.06
2023-10-10T17:47:18.833Z,99344.66
2023-10-10T17:48:21.084Z,99356.94
2023-10-10T17:49:23.127Z,99346.41
2023-10-10T17:50:25.101Z,99349.91
2023-10-10T17:51:29.636Z,99359.56
2023-10-10T17:52:31.492Z,99355.22
2023-10-10T17:53:33.506Z,99359.66
2023-10-10T17:54:35.437Z,99357.03
2023-10-10T17:55:38.647Z,99361.38
2023-10-10T17:56:41.220Z,99361.38
2023-10-10T17:57:43.501Z,99356.09
2023-10-10T17:58:47.460Z,99358.75
2023-10-10T17:59:53.785Z,99363.97
2023-10-10T18:00:56.841Z,99365.69
2023-10-10T18:01:58.860Z,99363.97
2023-10-10T18:03:02.128Z,99366.63
2023-10-10T18:04:04.761Z,99364.84
2023-10-10T18:05:07.131Z,99366.63
2023-10-10T18:06:22.488Z,99368.38
2023-10-10T18:07:24.443Z,99367.47
2023-10-10T18:08:28.348Z,99367.47
2023-10-10T18:09:36.755Z,99373.63
2023-10-10T18:10:38.898Z,99370.16
2023-10-10T18:11:40.880Z,99366.63
2023-10-10T18:12:43.886Z,99373.63
2023-10-10T18:13:47.246Z,99366.63
2023-10-10T18:14:53.311Z,99376.25
2023-10-10T18:15:57.812Z,99379.75
2023-10-10T18:16:59.858Z,99379.75
2023-10-10T18:18:02.096Z,99371.88
2023-10-10T18:19:06.706Z,99376.25
2023-10-10T18:20:16.203Z,99372.72
2023-10-10T18:21:21.057Z,99378.88
2023-10-10T18:22:23.397Z,99367.47
2023-10-10T18:23:25.395Z,99375.41
2023-10-10T18:24:30.640Z,99372.78
2023-10-10T18:25:33.293Z,99375.41
2023-10-10T18:26:39.180Z,99371.03
2023-10-10T18:27:43.161Z,99372.72
2023-10-10T18:28:45.385Z,99384.13
2023-10-10T18:29:49.603Z,99375.34
2023-10-10T18:30:51.484Z,99376.13
2023-10-10T18:31:53.614Z,99376.19
2023-10-10T18:32:55.959Z,99378.88
2023-10-10T18:33:58.055Z,99385.00